LYBE/BEG METAR and TAF weather

Enter ICAO airport designator
Station Type Date Time Source
LYBE METAR 2019/08/24 17:30 UTC NOAA

LYBE 241730Z 08008KT CAVOK 30/14 Q1018 NOSIG


Station Type Date Time Source
LYBE Decoded METAR 2019/08/24 17:30 UTC NOAA

Station name not available
Aug 24, 2019 - 01:30 PM EDT / 2019.08.24 1730 UTC
Wind: from the E (080 degrees) at 9 MPH (8 KT):0
Visibility: greater than 7 mile(s):0
Temperature: 86 F (30 C)
Dew Point: 57 F (14 C)
Relative Humidity: 37%
Pressure (altimeter): 30.06 in. Hg (1018 hPa)
ob: LYBE 241730Z 08008KT CAVOK 30/14 Q1018 NOSIG
cycle: 17

Station Type Date Time Source
LYBE TAF 2019/08/24 18:21 UTC NOAA

TAF LYBE 241700Z 2418/2518 09009KT CAVOK TX32/2513Z TN18/2504Z
TEMPO 2514/2518 VRB15KT 3000 TSRA SCT030CB BKN040

Example: see airport list